Upstream stations:
Downstream station:
SHEF ID: DEKT2 Red River near De Kalb, TX
STATION TYPE:
Regulating: Stage = 23.70, Flow = 65615
PRECIP STAGE STAGE(2) RIV-FLOW BAT-LOAD
in ft ft cfs volt
Ccp-Rev Ccp-Rev Ccp-Rev Ccp-Rev Ccp-Rev
(US/Central)
01/15 00:00 0.00 10.33 ---- 5252 12.73
01/15 01:00 0.00 10.32 ---- 5234 12.73
01/15 02:00 0.00 10.30 ---- 5197 12.65
01/15 03:00 0.00 10.24 ---- 5090 12.65
01/15 04:00 0.00 10.25 ---- 5108 12.65
01/15 05:00 0.00 10.23 ---- 5072 12.65
01/15 06:00 0.00 10.21 ---- 5037 12.57
01/15 07:00 0.00 10.20 ---- 5019 12.57
01/15 08:00 0.00 10.19 ---- 5001 12.57
01/15 09:00 0.00 10.18 ---- 4984 13.13
01/15 10:00 0.00 10.17 ---- 4966 13.29
01/15 11:00 0.00 10.15 ---- 4931 13.29
01/15 12:00 0.00 10.14 ---- 4914 13.29
01/15 13:00 0.00 10.15 ---- 4931 13.29
01/15 14:00 0.00 10.12 ---- 4879 13.21
01/15 15:00 0.00 10.11 ---- 4862 13.13
01/15 16:00 0.00 10.12 ---- 4879 13.05
01/15 17:00 0.00 10.11 ---- 4862 12.97
01/15 18:00 0.00 10.11 ---- 4862 12.89
01/15 19:00 0.00 10.15 ---- 4931 12.81
01/15 20:00 0.00 10.11 ---- 4862 12.81
01/15 21:00 0.00 10.14 ---- 4914 12.81
01/15 22:00 0.00 10.14 ---- 4914 12.73
01/15 23:00 0.00 10.12 ---- 4879 12.73